Wilmington, OH

7:54 PM EDT on March 26, 2015 (GMT -0400)
Little House On The Prairie | | Change Station
CLOSE
Current Station
Personal Weather Station
Location: Wilmington, OH
Elevation: 1043 ft
Nearby Weather Stations

Elev 1043 ft 39.45 °N, 83.82 °W | Updated 6 seconds ago

Overcast
Overcast
39.4 °F
Feels Like 37 °F
N
3.5
Wind Variable Wind from WNW
Gusts 3.5 mph

Today
High -- | Low -- °F
--% Chance of Precip.
Yesterday
High -- | Low -- °F
Precip. -- in
7:29 AM 7:53 PM
Waxing Crescent, 47% visible
Pressure 29.89 in
Visibility 9.0 miles
Clouds Scattered Clouds 2200 ft
Mostly Cloudy 6000 ft
Overcast 7000 ft
Windchill 37 °F
Dew Point 36 °F
Humidity 89%
Rainfall 0.56 in
Snow Depth Not available.
UV 0 out of 12
Pollen 1.00 out of 12
Air Quality Not available.
Flu Activity Not available.
SPECI KILN 262337Z AUTO 00000KT 9SM SCT022 BKN060 OVC070 04/01 A2989 RMK AO2 T00390006

More Conditions Fewer Conditions

Pressure 29.89 in
Visibility 9.0 miles
Clouds Scattered Clouds 2200 ft
Mostly Cloudy 6000 ft
Overcast 7000 ft
Windchill 37 °F
Dew Point 36 °F
Humidity 89%
Rainfall 0.56 in
Snow Depth Not available.
UV 0 out of 12
Pollen 1.00 out of 12
Air Quality Not available.
Flu Activity Not available.
SPECI KILN 262337Z AUTO 00000KT 9SM SCT022 BKN060 OVC070 04/01 A2989 RMK AO2 T00390006

More Conditions Fewer Conditions

10-Day Weather Forecast

Almanac

Astronomy

Mar. 26, 2015 Rise Set
Actual Time
Civil Twilight
Nautical Twilight
Astronomical Twilight
Moon
Length of Visible Light
Length of Day
Tomorrow will be .
, % of the Moon is Illuminated

Today's Extremes

State Highs State Lows

Community

WunderPhotos

Upload Photos

1,808,643 photos uploaded!

WunderBlogs® & News

Nearby

Air Quality

  Air Quality AQ Index Pollutant
Not available.

Snow Depth

Station Depth Elevation

Earthquake Activity

City Distance Mag. Time & Date
Minimum magnitude displayed is 2.5.

Coastal Water Temperatures

Place Temperature

Stations

Nearby Weather Stations

Station Location Temp. Windchill Dew Point Humidity Wind Precip. Elev Updated Type